Kyokushinmaru No.2 — JD2274 — position and weather

sailwx.info

Track history (hours):
 
Tides and Currents Weather Stations Pressure Air Temp Water Temp Dewpoint Dewpoint Depression Visibility Wind Speed Wind Dir Waves Ship Positions

Kyokushinmaru No.2

Last reported at 2018-Jun-25 01:58 UTC. Time now 2018-Jun-25 19:42 UTC.
Position N 34°40' E 134°50'.

Length 58 m; draft 4.6 m.

Type: Tanker. MMSI: 431501862.

Date/timePositionNaut miles runAvg speedWind from/ knotsBaromVisibWave heightAir tempDewpointWater temp
2018-Jun-25 01:58N 34°40' E 134°50'4 9.4
2018-Jun-25 01:29N 34°37' E 134°54'610.0
2018-Jun-25 00:55N 34°37' E 135°01'4 9.8
2018-Jun-25 00:30N 34°36' E 135°06'611.5
2018-Jun-25 00:00N 34°35' E 135°13'611.5
2018-Jun-24 23:30N 34°33' E 135°19'5 0.3
2018-Jun-24 07:57N 34°31' E 135°24'3 5.8
2018-Jun-24 07:30N 34°33' E 135°25'0 0.8
2018-Jun-24 07:00N 34°34' E 135°25'0 0.0
2018-Jun-24 06:29N 34°34' E 135°25'0 0.0
2018-Jun-24 06:00N 34°34' E 135°25'0 0.0
2018-Jun-24 05:28N 34°34' E 135°25'0 0.0
2018-Jun-24 04:47N 34°34' E 135°25'0 0.0
2018-Jun-24 04:29N 34°34' E 135°25'0 0.0
2018-Jun-24 03:42N 34°34' E 135°25'0 0.0
2018-Jun-24 03:28N 34°34' E 135°25'0 0.0
2018-Jun-24 03:00N 34°34' E 135°25'0 0.0
2018-Jun-24 02:29N 34°34' E 135°25'0 0.0
2018-Jun-24 02:00N 34°34' E 135°25'0 0.2
2018-Jun-24 01:29N 34°33' E 135°25'2 2.7
2018-Jun-24 00:54N 34°34' E 135°23'410.7
2018-Jun-24 00:30N 34°34' E 135°18'510.6
2018-Jun-24 00:00N 34°34' E 135°11'510.8
2018-Jun-23 23:30N 34°35' E 135°05'9 9.9
2018-Jun-23 22:38N 34°35' E 134°54'110.2
2018-Jun-23 22:30N 34°35' E 134°53'510.0
2018-Jun-23 22:00N 34°32' E 134°48'510.3
2018-Jun-23 21:30N 34°30' E 134°42'510.6
2018-Jun-23 21:00N 34°29' E 134°36'610.7
2018-Jun-23 20:29N 34°26' E 134°30'510.4
2018-Jun-23 19:58N 34°25' E 134°24'  
2018-Jun-17 02:41N 34°43' E 134°47'311.2
2018-Jun-17 02:26N 34°43' E 134°44'7 1.3
2018-Jun-16 20:55N 34°45' E 134°35'610.2
2018-Jun-16 20:22N 34°42' E 134°29'1110.3
2018-Jun-16 19:20N 34°36' E 134°18'14 0.4
2018-Jun-15 07:04N 34°28' E 134°32'1011.2
2018-Jun-15 06:10N 34°32' E 134°43'710.4
2018-Jun-15 05:31N 34°34' E 134°50'7 8.4
2018-Jun-15 04:44N 34°37' E 134°58'3 7.9
2018-Jun-15 04:23N 34°37' E 135°01'3 7.5
2018-Jun-15 04:00N 34°36' E 135°04'510.4
2018-Jun-15 03:30N 34°36' E 135°10'611.7
2018-Jun-15 02:59N 34°38' E 135°18'611.3
2018-Jun-15 02:30N 34°39' E 135°24'  
Track history (hours):
 
Tides and Currents Weather Stations Pressure Air Temp Water Temp Dewpoint Dewpoint Depression Visibility Wind Speed Wind Dir Waves Ship Positions

Kyokushinmaru No.2

Last reported at 2018-Jun-25 01:58 UTC. Time now 2018-Jun-25 19:42 UTC.
Position N 34°40' E 134°50'.

Length 58 m; draft 4.6 m.

Type: Tanker. MMSI: 431501862.

Date/timePositionNaut miles runAvg speedWind from/ knotsBaromVisibWave heightAir tempDewpointWater temp
2018-Jun-25 01:58N 34°40' E 134°50'4 9.4
2018-Jun-25 01:29N 34°37' E 134°54'610.0
2018-Jun-25 00:55N 34°37' E 135°01'4 9.8
2018-Jun-25 00:30N 34°36' E 135°06'611.5
2018-Jun-25 00:00N 34°35' E 135°13'611.5
2018-Jun-24 23:30N 34°33' E 135°19'5 0.3
2018-Jun-24 07:57N 34°31' E 135°24'3 5.8
2018-Jun-24 07:30N 34°33' E 135°25'0 0.8
2018-Jun-24 07:00N 34°34' E 135°25'0 0.0
2018-Jun-24 06:29N 34°34' E 135°25'0 0.0
2018-Jun-24 06:00N 34°34' E 135°25'0 0.0
2018-Jun-24 05:28N 34°34' E 135°25'0 0.0
2018-Jun-24 04:47N 34°34' E 135°25'0 0.0
2018-Jun-24 04:29N 34°34' E 135°25'0 0.0
2018-Jun-24 03:42N 34°34' E 135°25'0 0.0
2018-Jun-24 03:28N 34°34' E 135°25'0 0.0
2018-Jun-24 03:00N 34°34' E 135°25'0 0.0
2018-Jun-24 02:29N 34°34' E 135°25'0 0.0
2018-Jun-24 02:00N 34°34' E 135°25'0 0.2
2018-Jun-24 01:29N 34°33' E 135°25'2 2.7
2018-Jun-24 00:54N 34°34' E 135°23'410.7
2018-Jun-24 00:30N 34°34' E 135°18'510.6
2018-Jun-24 00:00N 34°34' E 135°11'510.8
2018-Jun-23 23:30N 34°35' E 135°05'9 9.9
2018-Jun-23 22:38N 34°35' E 134°54'110.2
2018-Jun-23 22:30N 34°35' E 134°53'510.0
2018-Jun-23 22:00N 34°32' E 134°48'510.3
2018-Jun-23 21:30N 34°30' E 134°42'510.6
2018-Jun-23 21:00N 34°29' E 134°36'610.7
2018-Jun-23 20:29N 34°26' E 134°30'510.4
2018-Jun-23 19:58N 34°25' E 134°24'  
2018-Jun-17 02:41N 34°43' E 134°47'311.2
2018-Jun-17 02:26N 34°43' E 134°44'7 1.3
2018-Jun-16 20:55N 34°45' E 134°35'610.2
2018-Jun-16 20:22N 34°42' E 134°29'1110.3
2018-Jun-16 19:20N 34°36' E 134°18'14 0.4
2018-Jun-15 07:04N 34°28' E 134°32'1011.2
2018-Jun-15 06:10N 34°32' E 134°43'710.4
2018-Jun-15 05:31N 34°34' E 134°50'7 8.4
2018-Jun-15 04:44N 34°37' E 134°58'3 7.9
2018-Jun-15 04:23N 34°37' E 135°01'3 7.5
2018-Jun-15 04:00N 34°36' E 135°04'510.4
2018-Jun-15 03:30N 34°36' E 135°10'611.7
2018-Jun-15 02:59N 34°38' E 135°18'611.3
2018-Jun-15 02:30N 34°39' E 135°24'  

Dump ship's entire track history